createdAt,value
2019-02-21T00:00:39.473Z,11.57
2019-02-21T00:03:08.809Z,11.37
2019-02-21T00:05:37.363Z,11.10
2019-02-21T00:08:06.079Z,10.23
2019-02-21T00:10:34.745Z,10.50
2019-02-21T00:13:03.441Z,11.40
2019-02-21T00:15:32.172Z,10.87
2019-02-21T00:18:00.859Z,10.90
2019-02-21T00:20:29.540Z,11.13
2019-02-21T00:22:58.190Z,11.03
2019-02-21T00:25:26.873Z,12.10
2019-02-21T00:27:55.489Z,10.83
2019-02-21T00:30:34.572Z,10.37
2019-02-21T00:32:54.542Z,10.80
2019-02-21T00:35:23.284Z,11.00
2019-02-21T00:37:52.025Z,10.57
2019-02-21T00:40:20.629Z,10.70
2019-02-21T00:42:49.295Z,11.20
2019-02-21T00:45:18.071Z,10.80
2019-02-21T00:47:46.862Z,10.70
2019-02-21T00:50:15.565Z,11.00
2019-02-21T00:52:44.267Z,10.37
2019-02-21T00:55:13.037Z,12.30
2019-02-21T00:57:41.744Z,10.87
2019-02-21T01:00:11.777Z,10.37
2019-02-21T01:02:40.487Z,10.67
2019-02-21T01:05:09.248Z,9.97
2019-02-21T01:07:37.913Z,10.10
2019-02-21T01:10:06.781Z,11.30
2019-02-21T01:12:35.341Z,9.67
2019-02-21T01:15:04.101Z,9.67
2019-02-21T01:17:32.829Z,10.20
2019-02-21T01:20:01.543Z,9.83
2019-02-21T01:22:30.245Z,10.93
2019-02-21T01:24:58.913Z,10.63
2019-02-21T01:27:27.650Z,10.33
2019-02-21T01:29:56.211Z,10.70
2019-02-21T01:32:24.989Z,10.57
2019-02-21T01:34:53.653Z,10.40
2019-02-21T01:37:22.262Z,11.37
2019-02-21T01:39:51.080Z,11.00
2019-02-21T01:42:19.748Z,11.40
2019-02-21T01:44:48.497Z,10.17
2019-02-21T01:47:17.157Z,10.50
2019-02-21T01:49:45.833Z,10.00
2019-02-21T01:52:14.458Z,10.30
2019-02-21T01:54:43.159Z,9.40
2019-02-21T01:57:11.835Z,11.00
2019-02-21T01:59:40.536Z,9.87
2019-02-21T02:02:09.220Z,9.47
2019-02-21T02:04:37.950Z,10.60
2019-02-21T02:07:06.609Z,10.30
2019-02-21T02:09:35.275Z,10.67
2019-02-21T02:12:03.918Z,9.00
2019-02-21T02:14:32.619Z,10.07
2019-02-21T02:17:01.273Z,8.90
2019-02-21T02:19:29.949Z,9.07
2019-02-21T02:21:58.662Z,9.30
2019-02-21T02:24:27.403Z,9.10
2019-02-21T02:26:55.975Z,8.93
2019-02-21T02:29:24.638Z,8.90
2019-02-21T02:31:53.309Z,9.30
2019-02-21T02:34:22.057Z,9.10
2019-02-21T02:36:50.717Z,8.57
2019-02-21T02:39:19.277Z,9.80
2019-02-21T02:41:47.845Z,8.63
2019-02-21T02:44:16.498Z,8.53
2019-02-21T02:46:45.153Z,9.97
2019-02-21T02:49:13.887Z,8.67
2019-02-21T02:51:42.633Z,8.80
2019-02-21T02:54:11.317Z,9.33
2019-02-21T02:56:39.999Z,9.50
2019-02-21T02:59:08.576Z,9.97
2019-02-21T03:01:37.248Z,9.33
2019-02-21T03:04:05.916Z,8.47
2019-02-21T03:06:34.590Z,9.37
2019-02-21T03:09:04.337Z,8.73
2019-02-21T03:11:32.986Z,9.87
2019-02-21T03:14:01.629Z,9.87
2019-02-21T03:16:30.301Z,9.90
2019-02-21T03:18:58.965Z,8.60
2019-02-21T03:21:27.637Z,8.93
2019-02-21T03:23:56.341Z,9.37
2019-02-21T03:26:24.919Z,10.20
2019-02-21T03:28:53.621Z,9.40
2019-02-21T03:31:22.325Z,10.13
2019-02-21T03:33:51.081Z,9.07
2019-02-21T03:36:19.882Z,10.33
2019-02-21T03:38:48.454Z,9.20
2019-02-21T03:41:17.124Z,9.97
2019-02-21T03:43:45.779Z,9.47
2019-02-21T03:46:14.430Z,9.73
2019-02-21T03:48:43.088Z,10.40
2019-02-21T03:51:11.753Z,9.30
2019-02-21T03:53:40.414Z,12.07
2019-02-21T03:56:09.037Z,10.63
2019-02-21T03:58:37.747Z,10.47
2019-02-21T04:01:06.347Z,11.70
2019-02-21T04:03:35.455Z,11.10
2019-02-21T04:06:04.158Z,12.53
2019-02-21T04:08:32.828Z,10.83
2019-02-21T04:11:01.465Z,11.47
2019-02-21T04:13:30.114Z,11.87
2019-02-21T04:15:58.787Z,11.63
2019-02-21T04:18:27.421Z,15.10
2019-02-21T04:20:56.129Z,12.37
2019-02-21T04:23:24.814Z,14.10
2019-02-21T04:25:53.470Z,14.53
2019-02-21T04:28:22.110Z,13.70
2019-02-21T04:30:50.760Z,14.53
2019-02-21T04:33:19.442Z,12.60
2019-02-21T04:35:48.146Z,14.60
2019-02-21T04:38:16.830Z,15.17
2019-02-21T04:40:45.506Z,14.60
2019-02-21T04:43:14.263Z,13.70
2019-02-21T04:45:42.841Z,14.63
2019-02-21T04:48:11.559Z,14.23
2019-02-21T04:50:40.261Z,15.07
2019-02-21T04:53:08.995Z,14.30
2019-02-21T04:55:37.653Z,15.33
2019-02-21T04:58:06.307Z,15.07
2019-02-21T05:00:35.004Z,14.67
2019-02-21T05:03:03.659Z,15.10
2019-02-21T05:05:32.362Z,16.10
2019-02-21T05:08:01.033Z,15.73
2019-02-21T05:10:29.738Z,15.70
2019-02-21T05:13:00.509Z,16.57
2019-02-21T05:15:29.202Z,16.40
2019-02-21T05:17:57.886Z,17.27
2019-02-21T05:20:26.524Z,15.13
2019-02-21T05:22:55.252Z,16.67
2019-02-21T05:25:23.975Z,16.23
2019-02-21T05:27:57.607Z,17.07
2019-02-21T05:30:27.395Z,16.77
2019-02-21T05:33:01.855Z,16.15
2019-02-21T05:35:39.350Z,17.17
2019-02-21T05:38:27.107Z,17.42
2019-02-21T05:41:14.827Z,17.10
2019-02-21T05:44:17.695Z,18.37
2019-02-21T05:46:51.586Z,17.33
2019-02-21T05:49:26.557Z,18.12
2019-02-21T05:52:17.533Z,17.48
2019-02-21T05:54:59.290Z,17.10
2019-02-21T05:57:59.253Z,17.57
2019-02-21T06:00:42.905Z,18.00
2019-02-21T06:03:30.615Z,17.53
2019-02-21T06:06:17.208Z,18.20
2019-02-21T06:09:04.365Z,18.27
2019-02-21T06:11:50.812Z,16.87
2019-02-21T06:14:41.866Z,17.03
2019-02-21T06:17:28.439Z,17.77
2019-02-21T06:20:17.969Z,17.53
2019-02-21T06:23:05.692Z,18.00
2019-02-21T06:25:50.874Z,16.90
2019-02-21T06:28:20.224Z,17.62
2019-02-21T06:30:55.163Z,18.47
2019-02-21T06:33:23.817Z,16.50
2019-02-21T06:35:52.522Z,17.60
2019-02-21T06:38:21.301Z,16.97
2019-02-21T06:40:49.997Z,17.87
2019-02-21T06:43:18.857Z,17.47
2019-02-21T06:45:47.540Z,18.70
2019-02-21T06:48:16.227Z,18.00
2019-02-21T06:50:47.744Z,18.93
2019-02-21T06:53:16.478Z,18.43
2019-02-21T06:55:45.132Z,17.43
2019-02-21T06:58:13.900Z,17.13
2019-02-21T07:00:42.572Z,17.37
2019-02-21T07:03:15.843Z,17.53
2019-02-21T07:05:41.669Z,18.07
2019-02-21T07:08:10.357Z,16.70
2019-02-21T07:10:39.162Z,17.40
2019-02-21T07:13:07.842Z,17.60
2019-02-21T07:15:36.541Z,17.07
2019-02-21T07:18:05.224Z,15.53
2019-02-21T07:20:33.994Z,15.53
2019-02-21T07:23:02.686Z,15.90
2019-02-21T07:25:45.422Z,17.00
2019-02-21T07:28:15.906Z,16.33
2019-02-21T07:30:44.641Z,15.63
2019-02-21T07:33:13.355Z,16.37
2019-02-21T07:35:41.935Z,16.50
2019-02-21T07:38:10.631Z,16.60
2019-02-21T07:40:39.318Z,16.60
2019-02-21T07:43:08.022Z,17.13
2019-02-21T07:45:36.725Z,15.73
2019-02-21T07:48:05.433Z,16.00
2019-02-21T07:50:34.100Z,17.87
2019-02-21T07:53:03.101Z,17.23
2019-02-21T07:55:31.942Z,16.73
2019-02-21T07:58:00.644Z,18.00
2019-02-21T08:00:29.227Z,16.60
2019-02-21T08:02:58.068Z,16.40
2019-02-21T08:05:26.784Z,17.37
2019-02-21T08:07:55.483Z,16.97
2019-02-21T08:10:33.139Z,16.83
2019-02-21T08:12:54.635Z,16.53
2019-02-21T08:15:23.386Z,16.53
2019-02-21T08:17:52.021Z,16.40
2019-02-21T08:20:20.681Z,17.33
2019-02-21T08:22:49.388Z,17.63
2019-02-21T08:25:19.264Z,17.87
2019-02-21T08:27:48.293Z,16.17
2019-02-21T08:30:17.032Z,15.83
2019-02-21T08:33:11.841Z,17.23
2019-02-21T08:35:40.543Z,16.57
2019-02-21T08:38:11.954Z,17.30
2019-02-21T08:40:39.741Z,16.17
2019-02-21T08:43:08.403Z,17.07
2019-02-21T08:45:37.069Z,18.10
2019-02-21T08:48:05.752Z,17.67
2019-02-21T08:50:34.429Z,17.07
2019-02-21T08:53:03.239Z,17.93
2019-02-21T08:55:31.913Z,16.93
2019-02-21T08:58:00.654Z,17.37
2019-02-21T09:00:31.420Z,17.90
2019-02-21T09:02:59.711Z,17.63
2019-02-21T09:05:28.395Z,18.77
2019-02-21T09:07:57.095Z,19.53
2019-02-21T09:10:27.605Z,18.93
2019-02-21T09:12:56.119Z,18.47
2019-02-21T09:15:24.811Z,17.93
2019-02-21T09:17:54.364Z,19.00
2019-02-21T09:20:23.402Z,19.03
2019-02-21T09:22:52.155Z,18.00
2019-02-21T09:25:20.863Z,18.60
2019-02-21T09:27:49.611Z,17.87
2019-02-21T09:30:18.438Z,18.17
2019-02-21T09:32:47.110Z,19.13
2019-02-21T09:35:15.872Z,17.53
2019-02-21T09:37:44.738Z,17.93
2019-02-21T09:40:13.455Z,18.17
2019-02-21T09:42:42.176Z,19.93
2019-02-21T09:45:11.883Z,18.40
2019-02-21T09:47:40.691Z,19.07
2019-02-21T09:50:09.847Z,18.47
2019-02-21T09:52:38.561Z,17.77
2019-02-21T09:55:08.231Z,18.53
2019-02-21T09:57:36.858Z,17.50
2019-02-21T10:00:06.203Z,18.03
2019-02-21T10:02:35.129Z,18.57
2019-02-21T10:05:05.418Z,18.63
2019-02-21T10:07:37.001Z,18.13
2019-02-21T10:10:08.034Z,17.93
2019-02-21T10:12:35.880Z,17.87
2019-02-21T10:15:04.817Z,18.20
2019-02-21T10:17:33.553Z,18.47
2019-02-21T10:20:04.110Z,19.07
2019-02-21T10:22:32.637Z,17.50
2019-02-21T10:25:01.317Z,19.13
2019-02-21T10:27:30.047Z,18.13
2019-02-21T10:29:58.737Z,19.37
2019-02-21T10:32:27.531Z,19.40
2019-02-21T10:34:56.258Z,17.87
2019-02-21T10:37:24.967Z,18.03
2019-02-21T10:39:53.633Z,18.87
2019-02-21T10:42:22.303Z,18.37
2019-02-21T10:44:51.039Z,18.93
2019-02-21T10:47:19.744Z,19.10
2019-02-21T10:49:48.517Z,17.63
2019-02-21T10:52:17.269Z,18.37
2019-02-21T10:54:46.060Z,19.67
2019-02-21T10:57:14.707Z,18.77
2019-02-21T10:59:46.808Z,18.70
2019-02-21T11:02:13.825Z,17.53
2019-02-21T11:04:42.504Z,17.63
2019-02-21T11:07:11.192Z,18.67
2019-02-21T11:09:39.853Z,18.43
2019-02-21T11:12:08.566Z,17.60
2019-02-21T11:14:56.304Z,18.27
2019-02-21T11:17:25.844Z,18.00
2019-02-21T11:19:54.596Z,18.23
2019-02-21T11:22:23.188Z,18.80
2019-02-21T11:24:51.908Z,18.20
2019-02-21T11:27:20.581Z,17.83
2019-02-21T11:29:49.203Z,17.60
2019-02-21T11:32:17.969Z,18.50
2019-02-21T11:34:46.670Z,17.80
2019-02-21T11:37:15.433Z,16.93
2019-02-21T11:39:44.156Z,17.87
2019-02-21T11:42:12.830Z,17.90
2019-02-21T11:44:41.505Z,16.00
2019-02-21T11:47:10.241Z,17.53
2019-02-21T11:49:39.059Z,15.87
2019-02-21T11:52:10.198Z,14.90
2019-02-21T11:54:38.036Z,15.40
2019-02-21T11:57:06.692Z,14.53
2019-02-21T11:59:35.557Z,15.73
2019-02-21T12:02:04.119Z,14.60
2019-02-21T12:04:32.837Z,14.47
2019-02-21T12:07:01.400Z,14.90
2019-02-21T12:09:30.141Z,14.87
2019-02-21T12:11:58.752Z,14.20
2019-02-21T12:14:27.452Z,14.27
2019-02-21T12:16:56.273Z,12.77
2019-02-21T12:19:25.056Z,11.90
2019-02-21T12:21:59.133Z,12.70
2019-02-21T12:24:24.300Z,12.50
2019-02-21T12:26:53.065Z,12.97
2019-02-21T12:29:21.772Z,11.27
2019-02-21T12:31:50.436Z,11.67
2019-02-21T12:34:19.129Z,11.67
2019-02-21T12:36:47.807Z,12.07
2019-02-21T12:39:16.495Z,12.13
2019-02-21T12:41:45.234Z,11.63
2019-02-21T12:44:13.986Z,12.27
2019-02-21T12:46:45.492Z,12.27
2019-02-21T12:49:13.155Z,12.53
2019-02-21T12:51:41.897Z,12.53
2019-02-21T12:54:10.623Z,12.30
2019-02-21T12:56:39.344Z,12.17
2019-02-21T12:59:08.066Z,13.40
2019-02-21T13:01:36.775Z,12.47
2019-02-21T13:04:05.619Z,13.47
2019-02-21T13:06:34.357Z,14.30
2019-02-21T13:09:03.146Z,13.20
2019-02-21T13:11:31.821Z,13.13
2019-02-21T13:14:00.505Z,13.00
2019-02-21T13:16:29.181Z,13.47
2019-02-21T13:18:57.827Z,13.57
2019-02-21T13:21:26.585Z,13.07
2019-02-21T13:23:55.256Z,11.87
2019-02-21T13:26:23.925Z,11.03
2019-02-21T13:28:52.703Z,12.33
2019-02-21T13:31:21.298Z,12.33
2019-02-21T13:33:49.981Z,10.40
2019-02-21T13:36:18.715Z,11.17
2019-02-21T13:38:47.385Z,11.80
2019-02-21T13:41:16.042Z,11.60
2019-02-21T13:43:44.767Z,11.23
2019-02-21T13:46:13.415Z,12.30
2019-02-21T13:48:42.141Z,12.00
2019-02-21T13:51:10.985Z,12.03
2019-02-21T13:53:39.696Z,12.30
2019-02-21T13:56:08.357Z,13.17
2019-02-21T13:58:37.062Z,12.50
2019-02-21T14:01:05.734Z,13.67
2019-02-21T14:03:34.425Z,13.30
2019-02-21T14:06:03.939Z,13.70
2019-02-21T14:08:32.757Z,14.30
2019-02-21T14:11:01.441Z,14.00
2019-02-21T14:13:30.091Z,14.10
2019-02-21T14:15:58.924Z,14.53
2019-02-21T14:18:27.679Z,13.43
2019-02-21T14:20:56.501Z,13.27
2019-02-21T14:23:27.922Z,13.60
2019-02-21T14:25:55.635Z,14.93
2019-02-21T14:28:24.378Z,14.60
2019-02-21T14:30:53.065Z,13.60
2019-02-21T14:33:21.784Z,13.60
2019-02-21T14:35:50.479Z,14.73
2019-02-21T14:38:27.305Z,14.47
2019-02-21T14:40:49.596Z,14.57
2019-02-21T14:43:18.269Z,14.70
2019-02-21T14:45:46.962Z,15.40
2019-02-21T14:48:15.621Z,14.97
2019-02-21T14:50:44.336Z,15.17
2019-02-21T14:53:12.983Z,15.20
2019-02-21T14:55:41.678Z,14.03
2019-02-21T14:58:10.254Z,15.20
2019-02-21T15:00:39.212Z,15.60
2019-02-21T15:03:07.977Z,14.70
2019-02-21T15:05:36.652Z,15.43
2019-02-21T15:08:05.382Z,14.60
2019-02-21T15:10:34.042Z,14.60
2019-02-21T15:13:02.746Z,14.67
2019-02-21T15:15:31.456Z,15.30
2019-02-21T15:18:07.446Z,13.33
2019-02-21T15:20:36.902Z,15.07
2019-02-21T15:23:00.922Z,15.40
2019-02-21T15:25:29.620Z,15.23
2019-02-21T15:27:58.279Z,15.17
2019-02-21T15:30:26.915Z,15.50
2019-02-21T15:32:55.622Z,15.20
2019-02-21T15:35:24.309Z,16.90
2019-02-21T15:37:53.053Z,14.80
2019-02-21T15:40:21.880Z,15.73
2019-02-21T15:42:52.576Z,14.57
2019-02-21T15:45:23.471Z,14.57
2019-02-21T15:47:51.503Z,16.37
2019-02-21T15:50:20.446Z,16.47
2019-02-21T15:52:49.293Z,15.80
2019-02-21T15:55:18.128Z,14.60
2019-02-21T15:57:46.793Z,15.60
2019-02-21T16:00:16.207Z,15.20
2019-02-21T16:02:45.036Z,14.60
2019-02-21T16:05:13.728Z,14.77
2019-02-21T16:07:42.511Z,15.80
2019-02-21T16:10:12.228Z,14.30
2019-02-21T16:12:41.725Z,14.50
2019-02-21T16:15:11.345Z,15.10
2019-02-21T16:17:40.321Z,15.20
2019-02-21T16:20:10.295Z,16.00
2019-02-21T16:22:39.058Z,14.80
2019-02-21T16:25:08.580Z,15.70
2019-02-21T16:27:37.347Z,14.90
2019-02-21T16:30:06.327Z,15.50
2019-02-21T16:32:34.993Z,16.47
2019-02-21T16:35:03.691Z,15.87
2019-02-21T16:37:32.502Z,17.70
2019-02-21T16:40:01.343Z,17.80
2019-02-21T16:42:30.064Z,17.47
2019-02-21T16:44:58.752Z,18.27
2019-02-21T16:47:27.402Z,18.30
2019-02-21T16:49:58.231Z,18.00
2019-02-21T16:52:26.466Z,18.63
2019-02-21T16:54:57.395Z,18.43
2019-02-21T16:57:26.137Z,18.27
2019-02-21T16:59:54.818Z,18.23
2019-02-21T17:02:23.578Z,17.87
2019-02-21T17:04:52.249Z,17.00
2019-02-21T17:07:20.955Z,18.97
2019-02-21T17:09:49.580Z,17.27
2019-02-21T17:12:18.367Z,18.37
2019-02-21T17:14:47.073Z,18.40
2019-02-21T17:17:15.790Z,18.77
2019-02-21T17:19:44.544Z,16.97
2019-02-21T17:22:13.424Z,17.87
2019-02-21T17:24:42.170Z,17.67
2019-02-21T17:27:10.911Z,18.73
2019-02-21T17:29:39.573Z,18.53
2019-02-21T17:32:08.364Z,17.30
2019-02-21T17:34:38.046Z,18.33
2019-02-21T17:37:06.876Z,18.87
2019-02-21T17:39:35.596Z,19.20
2019-02-21T17:42:04.356Z,20.00
2019-02-21T17:44:33.179Z,18.13
2019-02-21T17:47:01.889Z,19.40
2019-02-21T17:49:30.583Z,20.00
2019-02-21T17:51:59.336Z,18.83
2019-02-21T17:54:28.080Z,19.23
2019-02-21T17:56:56.802Z,19.13
2019-02-21T17:59:25.401Z,19.37
2019-02-21T18:01:54.089Z,19.77
2019-02-21T18:04:22.699Z,19.57
2019-02-21T18:06:51.421Z,19.50
2019-02-21T18:09:20.128Z,20.37
2019-02-21T18:11:48.818Z,19.50
2019-02-21T18:14:17.525Z,19.10
2019-02-21T18:16:46.216Z,21.03
2019-02-21T18:19:14.881Z,21.03
2019-02-21T18:21:43.656Z,19.27
2019-02-21T18:24:12.386Z,21.67
2019-02-21T18:26:41.135Z,20.43
2019-02-21T18:29:09.745Z,20.33
2019-02-21T18:31:38.480Z,19.43
2019-02-21T18:34:07.234Z,19.90
2019-02-21T18:36:35.943Z,19.50
2019-02-21T18:39:05.517Z,20.27
2019-02-21T18:41:34.224Z,19.77
2019-02-21T18:44:02.911Z,19.87
2019-02-21T18:46:31.594Z,20.30
2019-02-21T18:49:00.331Z,20.33
2019-02-21T18:51:29.143Z,20.17
2019-02-21T18:53:58.046Z,21.27
2019-02-21T18:56:26.751Z,21.40
2019-02-21T18:58:55.499Z,21.53
2019-02-21T19:01:24.265Z,20.30
2019-02-21T19:03:52.980Z,20.00
2019-02-21T19:06:21.723Z,21.77
2019-02-21T19:08:50.526Z,21.03
2019-02-21T19:11:19.241Z,22.13
2019-02-21T19:13:47.978Z,21.10
2019-02-21T19:16:16.889Z,21.23
2019-02-21T19:18:45.615Z,21.27
2019-02-21T19:21:14.454Z,19.57
2019-02-21T19:23:43.196Z,21.73
2019-02-21T19:26:12.031Z,20.70
2019-02-21T19:28:40.776Z,21.07
2019-02-21T19:31:11.315Z,22.60
2019-02-21T19:33:40.424Z,22.27
2019-02-21T19:36:09.179Z,21.30
2019-02-21T19:38:38.009Z,20.57
2019-02-21T19:41:06.985Z,21.13
2019-02-21T19:43:35.731Z,22.73
2019-02-21T19:46:04.495Z,23.50
2019-02-21T19:48:33.230Z,23.60
2019-02-21T19:51:01.930Z,23.43
2019-02-21T19:53:30.791Z,23.43
2019-02-21T19:55:59.500Z,23.43
2019-02-21T19:58:28.231Z,21.50
2019-02-21T20:00:56.947Z,21.73
2019-02-21T20:03:25.661Z,21.77
2019-02-21T20:05:54.358Z,23.53
2019-02-21T20:08:23.066Z,21.10
2019-02-21T20:10:51.815Z,22.40
2019-02-21T20:13:20.592Z,20.37
2019-02-21T20:15:49.364Z,20.70
2019-02-21T20:18:18.280Z,21.63
2019-02-21T20:20:47.058Z,21.07
2019-02-21T20:23:15.820Z,23.13
2019-02-21T20:25:44.581Z,19.63
2019-02-21T20:28:13.271Z,19.50
2019-02-21T20:30:42.065Z,20.53
2019-02-21T20:33:10.801Z,20.00
2019-02-21T20:35:39.533Z,19.60
2019-02-21T20:38:08.258Z,18.10
2019-02-21T20:40:36.975Z,17.87
2019-02-21T20:43:05.690Z,17.67
2019-02-21T20:45:34.416Z,17.77
2019-02-21T20:48:03.173Z,18.47
2019-02-21T20:50:31.867Z,18.90
2019-02-21T20:53:02.843Z,17.20
2019-02-21T20:55:31.027Z,16.83
2019-02-21T20:57:59.759Z,16.37
2019-02-21T21:00:28.473Z,16.97
2019-02-21T21:02:57.127Z,16.10
2019-02-21T21:05:25.970Z,16.00
2019-02-21T21:07:54.683Z,15.77
2019-02-21T21:10:23.321Z,15.67
2019-02-21T21:12:52.057Z,14.30
2019-02-21T21:15:20.749Z,14.87
2019-02-21T21:17:49.452Z,14.60
2019-02-21T21:20:18.098Z,15.63
2019-02-21T21:22:46.853Z,15.30
2019-02-21T21:25:15.558Z,15.27
2019-02-21T21:27:44.300Z,14.43
2019-02-21T21:30:13.348Z,14.67
2019-02-21T21:32:42.095Z,15.63
2019-02-21T21:35:10.886Z,15.33
2019-02-21T21:37:39.620Z,14.47
2019-02-21T21:40:09.204Z,13.83
2019-02-21T21:42:37.901Z,14.73
2019-02-21T21:45:10.495Z,14.70
2019-02-21T21:47:39.261Z,15.33
2019-02-21T21:50:08.550Z,15.17
2019-02-21T21:52:37.281Z,15.70
2019-02-21T21:55:06.288Z,14.90
2019-02-21T21:57:34.925Z,15.40
2019-02-21T22:00:04.108Z,14.47
2019-02-21T22:02:32.858Z,15.53
2019-02-21T22:05:01.588Z,16.37
2019-02-21T22:07:30.367Z,15.20
2019-02-21T22:09:59.108Z,16.20
2019-02-21T22:12:27.842Z,15.77
2019-02-21T22:14:56.456Z,17.07
2019-02-21T22:17:25.143Z,17.73
2019-02-21T22:19:53.866Z,18.60
2019-02-21T22:22:22.522Z,17.73
2019-02-21T22:24:51.179Z,18.50
2019-02-21T22:27:19.900Z,19.07
2019-02-21T22:29:48.624Z,19.67
2019-02-21T22:32:17.297Z,19.50
2019-02-21T22:34:45.918Z,19.20
2019-02-21T22:37:14.667Z,19.97
2019-02-21T22:39:43.390Z,20.77
2019-02-21T22:42:12.111Z,21.37
2019-02-21T22:44:40.801Z,20.53
2019-02-21T22:47:09.508Z,20.90
2019-02-21T22:49:38.156Z,19.83
2019-02-21T22:52:06.912Z,21.87
2019-02-21T22:54:35.553Z,21.13
2019-02-21T22:57:04.217Z,22.30
2019-02-21T22:59:32.912Z,22.43
2019-02-21T23:02:01.598Z,22.13
2019-02-21T23:04:55.309Z,23.40
2019-02-21T23:07:35.137Z,23.17
2019-02-21T23:10:03.811Z,22.67
2019-02-21T23:12:32.506Z,23.83
2019-02-21T23:15:01.178Z,24.60
2019-02-21T23:17:29.912Z,24.47
2019-02-21T23:19:58.681Z,24.43
2019-02-21T23:22:27.393Z,24.53
2019-02-21T23:24:56.110Z,24.63
2019-02-21T23:27:24.701Z,24.90
2019-02-21T23:29:53.433Z,24.43
2019-02-21T23:32:22.185Z,23.60
2019-02-21T23:34:51.782Z,23.80
2019-02-21T23:37:20.493Z,24.53
2019-02-21T23:39:49.220Z,25.37
2019-02-21T23:42:18.223Z,25.83
2019-02-21T23:44:47.127Z,24.30
2019-02-21T23:47:15.873Z,25.10
2019-02-21T23:49:44.541Z,24.53
2019-02-21T23:52:13.312Z,25.93
2019-02-21T23:54:42.060Z,25.07
2019-02-21T23:57:10.794Z,26.67
2019-02-21T23:59:39.484Z,26.83
